sensor_id;sensor_type;location;lat;lon;timestamp;P1;durP1;ratioP1;P2;durP2;ratioP2
29362;SDS011;16349;53.672;10.014;2024-01-30T00:00:37;7.83;;;7.03;;
29362;SDS011;16349;53.672;10.014;2024-01-30T00:03:04;8.30;;;6.70;;
29362;SDS011;16349;53.672;10.014;2024-01-30T00:05:31;9.27;;;7.53;;
29362;SDS011;16349;53.672;10.014;2024-01-30T00:07:58;9.90;;;7.17;;
29362;SDS011;16349;53.672;10.014;2024-01-30T00:10:25;8.77;;;6.67;;
29362;SDS011;16349;53.672;10.014;2024-01-30T00:12:51;8.67;;;7.13;;
29362;SDS011;16349;53.672;10.014;2024-01-30T00:15:18;9.50;;;6.93;;
29362;SDS011;16349;53.672;10.014;2024-01-30T00:17:46;8.33;;;6.70;;
29362;SDS011;16349;53.672;10.014;2024-01-30T00:20:14;13.53;;;7.30;;
29362;SDS011;16349;53.672;10.014;2024-01-30T00:22:40;7.03;;;6.37;;
29362;SDS011;16349;53.672;10.014;2024-01-30T00:25:07;8.60;;;7.17;;
29362;SDS011;16349;53.672;10.014;2024-01-30T00:27:35;10.33;;;6.80;;
29362;SDS011;16349;53.672;10.014;2024-01-30T00:30:01;9.00;;;6.80;;
29362;SDS011;16349;53.672;10.014;2024-01-30T00:32:30;8.73;;;6.67;;
29362;SDS011;16349;53.672;10.014;2024-01-30T00:34:58;9.33;;;6.23;;
29362;SDS011;16349;53.672;10.014;2024-01-30T00:37:24;8.63;;;6.60;;
29362;SDS011;16349;53.672;10.014;2024-01-30T00:39:51;9.17;;;6.67;;
29362;SDS011;16349;53.672;10.014;2024-01-30T00:42:18;7.63;;;6.70;;
29362;SDS011;16349;53.672;10.014;2024-01-30T00:44:46;7.43;;;6.70;;
29362;SDS011;16349;53.672;10.014;2024-01-30T00:47:13;9.93;;;6.33;;
29362;SDS011;16349;53.672;10.014;2024-01-30T00:49:39;13.63;;;6.53;;
29362;SDS011;16349;53.672;10.014;2024-01-30T00:52:08;9.03;;;6.10;;
29362;SDS011;16349;53.672;10.014;2024-01-30T00:54:35;8.33;;;6.77;;
29362;SDS011;16349;53.672;10.014;2024-01-30T00:57:02;8.57;;;6.70;;
29362;SDS011;16349;53.672;10.014;2024-01-30T00:59:29;7.57;;;6.43;;
29362;SDS011;16349;53.672;10.014;2024-01-30T01:01:56;6.70;;;5.93;;
29362;SDS011;16349;53.672;10.014;2024-01-30T01:04:22;7.67;;;5.80;;
29362;SDS011;16349;53.672;10.014;2024-01-30T01:06:49;8.33;;;6.33;;
29362;SDS011;16349;53.672;10.014;2024-01-30T01:09:17;7.53;;;6.17;;
29362;SDS011;16349;53.672;10.014;2024-01-30T01:11:44;9.73;;;6.53;;
29362;SDS011;16349;53.672;10.014;2024-01-30T01:14:11;7.53;;;6.47;;
29362;SDS011;16349;53.672;10.014;2024-01-30T01:16:38;7.50;;;5.63;;
29362;SDS011;16349;53.672;10.014;2024-01-30T01:19:07;10.33;;;6.60;;
29362;SDS011;16349;53.672;10.014;2024-01-30T01:21:34;7.63;;;6.77;;
29362;SDS011;16349;53.672;10.014;2024-01-30T01:24:01;9.00;;;6.40;;
29362;SDS011;16349;53.672;10.014;2024-01-30T01:26:29;9.83;;;6.80;;
29362;SDS011;16349;53.672;10.014;2024-01-30T01:28:56;9.37;;;6.57;;
29362;SDS011;16349;53.672;10.014;2024-01-30T01:31:22;9.20;;;5.90;;
29362;SDS011;16349;53.672;10.014;2024-01-30T01:33:50;7.37;;;6.63;;
29362;SDS011;16349;53.672;10.014;2024-01-30T01:36:16;7.30;;;5.97;;
29362;SDS011;16349;53.672;10.014;2024-01-30T01:38:43;9.30;;;7.57;;
29362;SDS011;16349;53.672;10.014;2024-01-30T01:41:10;7.50;;;6.63;;
29362;SDS011;16349;53.672;10.014;2024-01-30T01:43:38;8.13;;;6.90;;
29362;SDS011;16349;53.672;10.014;2024-01-30T01:46:05;8.07;;;5.73;;
29362;SDS011;16349;53.672;10.014;2024-01-30T01:48:32;7.20;;;5.93;;
29362;SDS011;16349;53.672;10.014;2024-01-30T01:50:59;8.97;;;6.10;;
29362;SDS011;16349;53.672;10.014;2024-01-30T01:53:26;9.60;;;6.60;;
29362;SDS011;16349;53.672;10.014;2024-01-30T01:55:53;7.57;;;6.70;;
29362;SDS011;16349;53.672;10.014;2024-01-30T01:58:21;8.47;;;6.60;;
29362;SDS011;16349;53.672;10.014;2024-01-30T02:00:50;6.27;;;5.67;;
29362;SDS011;16349;53.672;10.014;2024-01-30T02:03:17;8.23;;;6.23;;
29362;SDS011;16349;53.672;10.014;2024-01-30T02:05:46;9.37;;;7.30;;
29362;SDS011;16349;53.672;10.014;2024-01-30T02:08:13;11.63;;;7.00;;
29362;SDS011;16349;53.672;10.014;2024-01-30T02:10:40;7.13;;;6.30;;
29362;SDS011;16349;53.672;10.014;2024-01-30T02:13:07;7.87;;;5.90;;
29362;SDS011;16349;53.672;10.014;2024-01-30T02:15:34;7.67;;;5.90;;
29362;SDS011;16349;53.672;10.014;2024-01-30T02:18:02;10.03;;;6.63;;
29362;SDS011;16349;53.672;10.014;2024-01-30T02:20:29;7.90;;;5.83;;
29362;SDS011;16349;53.672;10.014;2024-01-30T02:22:58;8.53;;;5.93;;
29362;SDS011;16349;53.672;10.014;2024-01-30T02:25:30;11.77;;;6.30;;
29362;SDS011;16349;53.672;10.014;2024-01-30T02:27:57;8.60;;;5.80;;
29362;SDS011;16349;53.672;10.014;2024-01-30T02:30:24;7.10;;;5.27;;
29362;SDS011;16349;53.672;10.014;2024-01-30T02:32:51;7.53;;;5.97;;
29362;SDS011;16349;53.672;10.014;2024-01-30T02:35:18;7.10;;;5.93;;
29362;SDS011;16349;53.672;10.014;2024-01-30T02:37:44;8.30;;;6.30;;
29362;SDS011;16349;53.672;10.014;2024-01-30T02:40:13;7.53;;;5.87;;
29362;SDS011;16349;53.672;10.014;2024-01-30T02:42:40;7.60;;;6.13;;
29362;SDS011;16349;53.672;10.014;2024-01-30T02:45:08;9.80;;;5.53;;
29362;SDS011;16349;53.672;10.014;2024-01-30T02:47:35;7.70;;;5.67;;
29362;SDS011;16349;53.672;10.014;2024-01-30T02:50:02;5.80;;;5.17;;
29362;SDS011;16349;53.672;10.014;2024-01-30T02:52:29;6.83;;;6.00;;
29362;SDS011;16349;53.672;10.014;2024-01-30T02:54:56;8.03;;;5.80;;
29362;SDS011;16349;53.672;10.014;2024-01-30T02:57:24;6.33;;;5.70;;
29362;SDS011;16349;53.672;10.014;2024-01-30T02:59:51;7.60;;;5.67;;
29362;SDS011;16349;53.672;10.014;2024-01-30T03:02:18;8.80;;;6.20;;
29362;SDS011;16349;53.672;10.014;2024-01-30T03:04:45;8.57;;;6.10;;
29362;SDS011;16349;53.672;10.014;2024-01-30T03:07:12;10.77;;;5.80;;
29362;SDS011;16349;53.672;10.014;2024-01-30T03:09:40;8.30;;;6.23;;
29362;SDS011;16349;53.672;10.014;2024-01-30T03:12:08;7.87;;;6.07;;
29362;SDS011;16349;53.672;10.014;2024-01-30T03:14:36;6.63;;;5.53;;
29362;SDS011;16349;53.672;10.014;2024-01-30T03:17:02;7.30;;;6.60;;
29362;SDS011;16349;53.672;10.014;2024-01-30T03:19:29;6.90;;;6.00;;
29362;SDS011;16349;53.672;10.014;2024-01-30T03:21:56;8.67;;;6.10;;
29362;SDS011;16349;53.672;10.014;2024-01-30T03:24:23;7.97;;;5.67;;
29362;SDS011;16349;53.672;10.014;2024-01-30T03:26:50;5.87;;;5.07;;
29362;SDS011;16349;53.672;10.014;2024-01-30T03:29:16;6.87;;;5.63;;
29362;SDS011;16349;53.672;10.014;2024-01-30T03:31:45;8.43;;;6.67;;
29362;SDS011;16349;53.672;10.014;2024-01-30T03:34:12;12.83;;;6.37;;
29362;SDS011;16349;53.672;10.014;2024-01-30T03:36:39;6.37;;;5.40;;
29362;SDS011;16349;53.672;10.014;2024-01-30T03:39:06;6.50;;;5.63;;
29362;SDS011;16349;53.672;10.014;2024-01-30T03:41:33;8.23;;;5.73;;
29362;SDS011;16349;53.672;10.014;2024-01-30T03:44:00;8.63;;;6.20;;
29362;SDS011;16349;53.672;10.014;2024-01-30T03:46:27;8.20;;;5.63;;
29362;SDS011;16349;53.672;10.014;2024-01-30T03:48:55;8.37;;;5.80;;
29362;SDS011;16349;53.672;10.014;2024-01-30T03:51:22;6.33;;;5.43;;
29362;SDS011;16349;53.672;10.014;2024-01-30T03:53:48;6.90;;;5.83;;
29362;SDS011;16349;53.672;10.014;2024-01-30T03:56:15;6.60;;;5.77;;
29362;SDS011;16349;53.672;10.014;2024-01-30T03:58:42;6.40;;;4.73;;
29362;SDS011;16349;53.672;10.014;2024-01-30T04:01:12;7.90;;;6.40;;
29362;SDS011;16349;53.672;10.014;2024-01-30T04:03:39;10.40;;;6.17;;
29362;SDS011;16349;53.672;10.014;2024-01-30T04:06:07;8.83;;;6.23;;
29362;SDS011;16349;53.672;10.014;2024-01-30T04:08:34;7.70;;;6.30;;
29362;SDS011;16349;53.672;10.014;2024-01-30T04:11:03;7.97;;;5.37;;
29362;SDS011;16349;53.672;10.014;2024-01-30T04:13:30;9.50;;;5.87;;
29362;SDS011;16349;53.672;10.014;2024-01-30T04:15:58;6.80;;;5.80;;
29362;SDS011;16349;53.672;10.014;2024-01-30T04:18:26;7.37;;;5.53;;
29362;SDS011;16349;53.672;10.014;2024-01-30T04:20:53;7.63;;;6.33;;
29362;SDS011;16349;53.672;10.014;2024-01-30T04:23:21;8.60;;;6.30;;
29362;SDS011;16349;53.672;10.014;2024-01-30T04:25:49;6.70;;;5.40;;
29362;SDS011;16349;53.672;10.014;2024-01-30T04:28:16;7.23;;;6.20;;
29362;SDS011;16349;53.672;10.014;2024-01-30T04:30:43;6.23;;;5.70;;
29362;SDS011;16349;53.672;10.014;2024-01-30T04:33:10;9.63;;;5.93;;
29362;SDS011;16349;53.672;10.014;2024-01-30T04:35:37;8.67;;;5.90;;
29362;SDS011;16349;53.672;10.014;2024-01-30T04:38:04;9.47;;;5.70;;
29362;SDS011;16349;53.672;10.014;2024-01-30T04:40:32;8.97;;;5.13;;
29362;SDS011;16349;53.672;10.014;2024-01-30T04:42:59;6.07;;;4.83;;
29362;SDS011;16349;53.672;10.014;2024-01-30T04:45:25;9.53;;;5.73;;
29362;SDS011;16349;53.672;10.014;2024-01-30T04:47:52;7.93;;;6.10;;
29362;SDS011;16349;53.672;10.014;2024-01-30T04:50:19;6.97;;;5.77;;
29362;SDS011;16349;53.672;10.014;2024-01-30T04:52:46;7.27;;;6.37;;
29362;SDS011;16349;53.672;10.014;2024-01-30T04:55:13;8.63;;;6.40;;
29362;SDS011;16349;53.672;10.014;2024-01-30T04:57:41;8.73;;;6.13;;
29362;SDS011;16349;53.672;10.014;2024-01-30T05:00:08;7.53;;;6.20;;
29362;SDS011;16349;53.672;10.014;2024-01-30T05:02:36;7.73;;;5.93;;
29362;SDS011;16349;53.672;10.014;2024-01-30T05:05:02;11.57;;;6.77;;
29362;SDS011;16349;53.672;10.014;2024-01-30T05:07:30;7.07;;;6.27;;
29362;SDS011;16349;53.672;10.014;2024-01-30T05:09:56;9.63;;;6.63;;
29362;SDS011;16349;53.672;10.014;2024-01-30T05:12:23;8.93;;;7.03;;
29362;SDS011;16349;53.672;10.014;2024-01-30T05:14:51;10.80;;;6.90;;
29362;SDS011;16349;53.672;10.014;2024-01-30T05:17:18;8.17;;;6.93;;
29362;SDS011;16349;53.672;10.014;2024-01-30T05:19:45;9.90;;;7.33;;
29362;SDS011;16349;53.672;10.014;2024-01-30T05:22:12;11.27;;;7.47;;
29362;SDS011;16349;53.672;10.014;2024-01-30T05:24:40;8.33;;;6.53;;
29362;SDS011;16349;53.672;10.014;2024-01-30T05:27:08;9.27;;;7.47;;
29362;SDS011;16349;53.672;10.014;2024-01-30T05:29:34;7.13;;;6.17;;
29362;SDS011;16349;53.672;10.014;2024-01-30T05:32:03;9.13;;;7.70;;
29362;SDS011;16349;53.672;10.014;2024-01-30T05:34:31;16.50;;;8.13;;
29362;SDS011;16349;53.672;10.014;2024-01-30T05:36:58;13.40;;;8.53;;
29362;SDS011;16349;53.672;10.014;2024-01-30T05:39:25;11.53;;;8.20;;
29362;SDS011;16349;53.672;10.014;2024-01-30T05:41:52;11.97;;;8.37;;
29362;SDS011;16349;53.672;10.014;2024-01-30T05:44:19;11.43;;;8.73;;
29362;SDS011;16349;53.672;10.014;2024-01-30T05:46:46;10.10;;;8.10;;
29362;SDS011;16349;53.672;10.014;2024-01-30T05:49:14;15.73;;;8.60;;
29362;SDS011;16349;53.672;10.014;2024-01-30T05:51:41;9.87;;;8.07;;
29362;SDS011;16349;53.672;10.014;2024-01-30T05:54:07;14.93;;;8.77;;
29362;SDS011;16349;53.672;10.014;2024-01-30T05:56:34;12.03;;;8.83;;
29362;SDS011;16349;53.672;10.014;2024-01-30T05:59:00;10.30;;;7.80;;
29362;SDS011;16349;53.672;10.014;2024-01-30T06:01:27;9.87;;;7.83;;
29362;SDS011;16349;53.672;10.014;2024-01-30T06:03:54;12.50;;;8.57;;
29362;SDS011;16349;53.672;10.014;2024-01-30T06:06:22;11.00;;;8.67;;
29362;SDS011;16349;53.672;10.014;2024-01-30T06:08:49;10.87;;;8.27;;
29362;SDS011;16349;53.672;10.014;2024-01-30T06:11:16;14.83;;;8.67;;
29362;SDS011;16349;53.672;10.014;2024-01-30T06:13:43;11.37;;;8.60;;
29362;SDS011;16349;53.672;10.014;2024-01-30T06:16:10;10.93;;;8.60;;
29362;SDS011;16349;53.672;10.014;2024-01-30T06:18:37;10.67;;;8.50;;
29362;SDS011;16349;53.672;10.014;2024-01-30T06:21:04;14.50;;;8.73;;
29362;SDS011;16349;53.672;10.014;2024-01-30T06:23:32;9.60;;;7.97;;
29362;SDS011;16349;53.672;10.014;2024-01-30T06:25:59;13.93;;;9.10;;
29362;SDS011;16349;53.672;10.014;2024-01-30T06:28:26;10.93;;;8.80;;
29362;SDS011;16349;53.672;10.014;2024-01-30T06:30:54;11.70;;;8.47;;
29362;SDS011;16349;53.672;10.014;2024-01-30T06:33:21;11.73;;;8.60;;
29362;SDS011;16349;53.672;10.014;2024-01-30T06:35:48;11.47;;;8.77;;
29362;SDS011;16349;53.672;10.014;2024-01-30T06:38:15;14.53;;;8.60;;
29362;SDS011;16349;53.672;10.014;2024-01-30T06:40:43;11.10;;;8.17;;
29362;SDS011;16349;53.672;10.014;2024-01-30T06:43:10;15.10;;;9.27;;
29362;SDS011;16349;53.672;10.014;2024-01-30T06:45:37;11.17;;;8.30;;
29362;SDS011;16349;53.672;10.014;2024-01-30T06:48:04;11.60;;;8.63;;
29362;SDS011;16349;53.672;10.014;2024-01-30T06:50:31;13.00;;;9.00;;
29362;SDS011;16349;53.672;10.014;2024-01-30T06:52:58;12.90;;;9.73;;
29362;SDS011;16349;53.672;10.014;2024-01-30T06:55:25;12.00;;;8.47;;
29362;SDS011;16349;53.672;10.014;2024-01-30T06:57:53;13.97;;;9.10;;
29362;SDS011;16349;53.672;10.014;2024-01-30T07:00:20;11.83;;;9.10;;
29362;SDS011;16349;53.672;10.014;2024-01-30T07:02:48;9.43;;;8.33;;
29362;SDS011;16349;53.672;10.014;2024-01-30T07:05:15;11.33;;;9.33;;
29362;SDS011;16349;53.672;10.014;2024-01-30T07:07:43;14.30;;;8.63;;
29362;SDS011;16349;53.672;10.014;2024-01-30T07:10:09;13.80;;;9.40;;
29362;SDS011;16349;53.672;10.014;2024-01-30T07:12:37;12.97;;;9.20;;
29362;SDS011;16349;53.672;10.014;2024-01-30T07:15:05;13.80;;;9.40;;
29362;SDS011;16349;53.672;10.014;2024-01-30T07:17:34;12.23;;;9.10;;
29362;SDS011;16349;53.672;10.014;2024-01-30T07:20:01;10.93;;;8.87;;
29362;SDS011;16349;53.672;10.014;2024-01-30T07:22:28;10.87;;;8.27;;
29362;SDS011;16349;53.672;10.014;2024-01-30T07:24:56;12.37;;;9.70;;
29362;SDS011;16349;53.672;10.014;2024-01-30T07:27:22;13.93;;;9.13;;
29362;SDS011;16349;53.672;10.014;2024-01-30T07:29:50;13.13;;;9.57;;
29362;SDS011;16349;53.672;10.014;2024-01-30T07:32:18;11.40;;;9.00;;
29362;SDS011;16349;53.672;10.014;2024-01-30T07:34:45;14.07;;;9.17;;
29362;SDS011;16349;53.672;10.014;2024-01-30T07:37:12;14.43;;;9.80;;
29362;SDS011;16349;53.672;10.014;2024-01-30T07:39:40;13.50;;;9.50;;
29362;SDS011;16349;53.672;10.014;2024-01-30T07:42:07;11.40;;;9.17;;
29362;SDS011;16349;53.672;10.014;2024-01-30T07:44:34;12.20;;;9.57;;
29362;SDS011;16349;53.672;10.014;2024-01-30T07:47:01;15.37;;;10.17;;
29362;SDS011;16349;53.672;10.014;2024-01-30T07:49:30;10.57;;;8.67;;
29362;SDS011;16349;53.672;10.014;2024-01-30T07:51:57;14.27;;;9.93;;
29362;SDS011;16349;53.672;10.014;2024-01-30T07:54:32;13.47;;;9.13;;
29362;SDS011;16349;53.672;10.014;2024-01-30T08:03:54;14.47;;;9.50;;
29362;SDS011;16349;53.672;10.014;2024-01-30T08:06:22;11.10;;;9.50;;
29362;SDS011;16349;53.672;10.014;2024-01-30T08:08:49;11.53;;;9.50;;
29362;SDS011;16349;53.672;10.014;2024-01-30T08:11:19;11.03;;;9.13;;
29362;SDS011;16349;53.672;10.014;2024-01-30T08:13:50;13.97;;;9.80;;
29362;SDS011;16349;53.672;10.014;2024-01-30T08:16:17;15.03;;;10.13;;
29362;SDS011;16349;53.672;10.014;2024-01-30T08:18:44;14.07;;;9.93;;
29362;SDS011;16349;53.672;10.014;2024-01-30T08:21:11;13.33;;;9.83;;
29362;SDS011;16349;53.672;10.014;2024-01-30T08:23:39;14.43;;;10.70;;
29362;SDS011;16349;53.672;10.014;2024-01-30T08:26:06;13.60;;;10.50;;
29362;SDS011;16349;53.672;10.014;2024-01-30T08:28:33;13.63;;;10.43;;
29362;SDS011;16349;53.672;10.014;2024-01-30T08:30:59;17.00;;;10.87;;
29362;SDS011;16349;53.672;10.014;2024-01-30T08:33:26;14.17;;;10.37;;
29362;SDS011;16349;53.672;10.014;2024-01-30T08:35:53;15.77;;;10.63;;
29362;SDS011;16349;53.672;10.014;2024-01-30T08:38:20;15.00;;;10.17;;
29362;SDS011;16349;53.672;10.014;2024-01-30T08:40:49;15.60;;;10.37;;
29362;SDS011;16349;53.672;10.014;2024-01-30T08:43:16;13.50;;;9.97;;
29362;SDS011;16349;53.672;10.014;2024-01-30T08:45:42;17.53;;;10.27;;
29362;SDS011;16349;53.672;10.014;2024-01-30T08:48:09;14.80;;;11.23;;
29362;SDS011;16349;53.672;10.014;2024-01-30T08:50:36;16.40;;;10.53;;
29362;SDS011;16349;53.672;10.014;2024-01-30T08:53:03;16.53;;;10.33;;
29362;SDS011;16349;53.672;10.014;2024-01-30T08:55:30;12.70;;;10.27;;
29362;SDS011;16349;53.672;10.014;2024-01-30T08:57:58;16.23;;;10.57;;
29362;SDS011;16349;53.672;10.014;2024-01-30T09:00:25;14.73;;;10.83;;
29362;SDS011;16349;53.672;10.014;2024-01-30T09:02:52;15.47;;;10.77;;
29362;SDS011;16349;53.672;10.014;2024-01-30T09:05:19;13.10;;;10.27;;
29362;SDS011;16349;53.672;10.014;2024-01-30T09:07:46;13.13;;;10.73;;
29362;SDS011;16349;53.672;10.014;2024-01-30T09:10:12;15.97;;;10.10;;
29362;SDS011;16349;53.672;10.014;2024-01-30T09:12:39;12.73;;;9.97;;
29362;SDS011;16349;53.672;10.014;2024-01-30T09:15:08;14.17;;;10.77;;
29362;SDS011;16349;53.672;10.014;2024-01-30T09:17:35;16.30;;;10.90;;
29362;SDS011;16349;53.672;10.014;2024-01-30T09:20:02;14.53;;;10.63;;
29362;SDS011;16349;53.672;10.014;2024-01-30T09:22:29;17.30;;;10.70;;
29362;SDS011;16349;53.672;10.014;2024-01-30T09:24:56;12.67;;;10.40;;
29362;SDS011;16349;53.672;10.014;2024-01-30T09:27:23;13.70;;;10.43;;
29362;SDS011;16349;53.672;10.014;2024-01-30T09:29:50;12.67;;;10.70;;
29362;SDS011;16349;53.672;10.014;2024-01-30T09:32:18;12.33;;;10.00;;
29362;SDS011;16349;53.672;10.014;2024-01-30T09:34:45;14.63;;;10.80;;
29362;SDS011;16349;53.672;10.014;2024-01-30T09:37:12;15.93;;;10.97;;
29362;SDS011;16349;53.672;10.014;2024-01-30T09:39:40;15.47;;;11.13;;
29362;SDS011;16349;53.672;10.014;2024-01-30T09:42:09;15.77;;;11.83;;
29362;SDS011;16349;53.672;10.014;2024-01-30T09:44:43;18.10;;;11.87;;
29362;SDS011;16349;53.672;10.014;2024-01-30T09:47:10;13.17;;;10.73;;
29362;SDS011;16349;53.672;10.014;2024-01-30T09:49:38;13.80;;;10.00;;
29362;SDS011;16349;53.672;10.014;2024-01-30T09:52:08;15.73;;;11.13;;
29362;SDS011;16349;53.672;10.014;2024-01-30T09:54:35;14.57;;;10.10;;
29362;SDS011;16349;53.672;10.014;2024-01-30T09:57:02;12.03;;;9.83;;
29362;SDS011;16349;53.672;10.014;2024-01-30T09:59:29;14.27;;;9.83;;
29362;SDS011;16349;53.672;10.014;2024-01-30T10:01:56;17.13;;;10.90;;
29362;SDS011;16349;53.672;10.014;2024-01-30T10:04:24;12.13;;;10.03;;
29362;SDS011;16349;53.672;10.014;2024-01-30T10:06:52;13.70;;;10.40;;
29362;SDS011;16349;53.672;10.014;2024-01-30T10:09:18;14.97;;;10.90;;
29362;SDS011;16349;53.672;10.014;2024-01-30T10:11:46;14.97;;;10.77;;
29362;SDS011;16349;53.672;10.014;2024-01-30T10:14:15;16.20;;;10.63;;
29362;SDS011;16349;53.672;10.014;2024-01-30T10:16:42;12.03;;;9.83;;
29362;SDS011;16349;53.672;10.014;2024-01-30T10:19:10;14.97;;;10.57;;
29362;SDS011;16349;53.672;10.014;2024-01-30T10:21:37;16.33;;;10.97;;
29362;SDS011;16349;53.672;10.014;2024-01-30T10:24:05;13.87;;;10.33;;
29362;SDS011;16349;53.672;10.014;2024-01-30T10:26:33;13.20;;;10.30;;
29362;SDS011;16349;53.672;10.014;2024-01-30T10:28:59;12.33;;;9.70;;
29362;SDS011;16349;53.672;10.014;2024-01-30T10:31:27;14.73;;;10.37;;
29362;SDS011;16349;53.672;10.014;2024-01-30T10:33:54;12.07;;;10.10;;
29362;SDS011;16349;53.672;10.014;2024-01-30T10:36:21;13.07;;;11.13;;
29362;SDS011;16349;53.672;10.014;2024-01-30T10:38:54;13.03;;;10.03;;
29362;SDS011;16349;53.672;10.014;2024-01-30T10:41:26;12.67;;;10.43;;
29362;SDS011;16349;53.672;10.014;2024-01-30T10:43:57;13.30;;;10.47;;
29362;SDS011;16349;53.672;10.014;2024-01-30T10:46:29;17.67;;;10.87;;
29362;SDS011;16349;53.672;10.014;2024-01-30T10:48:59;17.00;;;11.00;;
29362;SDS011;16349;53.672;10.014;2024-01-30T10:51:27;15.63;;;10.07;;
29362;SDS011;16349;53.672;10.014;2024-01-30T10:53:54;14.47;;;9.97;;
29362;SDS011;16349;53.672;10.014;2024-01-30T10:56:22;14.10;;;9.67;;
29362;SDS011;16349;53.672;10.014;2024-01-30T10:58:51;14.10;;;9.87;;
29362;SDS011;16349;53.672;10.014;2024-01-30T11:01:19;14.57;;;10.17;;
29362;SDS011;16349;53.672;10.014;2024-01-30T11:03:48;16.57;;;9.60;;
29362;SDS011;16349;53.672;10.014;2024-01-30T11:06:15;12.00;;;9.53;;
29362;SDS011;16349;53.672;10.014;2024-01-30T11:08:45;14.47;;;9.67;;
29362;SDS011;16349;53.672;10.014;2024-01-30T11:11:11;14.70;;;10.20;;
29362;SDS011;16349;53.672;10.014;2024-01-30T11:13:38;12.53;;;9.93;;
29362;SDS011;16349;53.672;10.014;2024-01-30T11:16:07;15.40;;;9.53;;
29362;SDS011;16349;53.672;10.014;2024-01-30T11:18:38;13.53;;;9.37;;
29362;SDS011;16349;53.672;10.014;2024-01-30T11:21:05;15.33;;;10.63;;
29362;SDS011;16349;53.672;10.014;2024-01-30T11:23:33;18.80;;;9.83;;
29362;SDS011;16349;53.672;10.014;2024-01-30T11:26:00;13.67;;;9.60;;
29362;SDS011;16349;53.672;10.014;2024-01-30T11:28:31;10.93;;;9.03;;
29362;SDS011;16349;53.672;10.014;2024-01-30T11:31:03;14.23;;;8.97;;
29362;SDS011;16349;53.672;10.014;2024-01-30T11:33:31;13.93;;;10.63;;
29362;SDS011;16349;53.672;10.014;2024-01-30T11:35:59;13.37;;;10.17;;
29362;SDS011;16349;53.672;10.014;2024-01-30T11:38:27;11.17;;;9.87;;
29362;SDS011;16349;53.672;10.014;2024-01-30T11:40:54;14.60;;;10.17;;
29362;SDS011;16349;53.672;10.014;2024-01-30T11:43:21;13.43;;;9.53;;
29362;SDS011;16349;53.672;10.014;2024-01-30T11:45:49;16.00;;;10.50;;
29362;SDS011;16349;53.672;10.014;2024-01-30T11:48:16;13.30;;;10.17;;
29362;SDS011;16349;53.672;10.014;2024-01-30T11:50:44;13.87;;;9.47;;
29362;SDS011;16349;53.672;10.014;2024-01-30T11:53:11;16.90;;;9.87;;
29362;SDS011;16349;53.672;10.014;2024-01-30T11:55:38;15.63;;;10.03;;
29362;SDS011;16349;53.672;10.014;2024-01-30T11:58:05;15.07;;;10.40;;
29362;SDS011;16349;53.672;10.014;2024-01-30T12:00:31;14.23;;;9.97;;
29362;SDS011;16349;53.672;10.014;2024-01-30T12:02:59;14.90;;;9.43;;
29362;SDS011;16349;53.672;10.014;2024-01-30T12:05:27;13.03;;;10.57;;
29362;SDS011;16349;53.672;10.014;2024-01-30T12:07:55;12.93;;;9.70;;
29362;SDS011;16349;53.672;10.014;2024-01-30T12:10:24;16.40;;;10.73;;
29362;SDS011;16349;53.672;10.014;2024-01-30T12:12:51;13.07;;;9.93;;
29362;SDS011;16349;53.672;10.014;2024-01-30T12:15:21;13.83;;;10.07;;
29362;SDS011;16349;53.672;10.014;2024-01-30T12:17:48;14.00;;;9.57;;
29362;SDS011;16349;53.672;10.014;2024-01-30T12:20:17;15.27;;;10.47;;
29362;SDS011;16349;53.672;10.014;2024-01-30T12:22:45;15.53;;;9.77;;
29362;SDS011;16349;53.672;10.014;2024-01-30T12:25:14;14.80;;;10.53;;
29362;SDS011;16349;53.672;10.014;2024-01-30T12:27:43;15.53;;;10.30;;
29362;SDS011;16349;53.672;10.014;2024-01-30T12:30:11;16.77;;;10.93;;
29362;SDS011;16349;53.672;10.014;2024-01-30T12:32:40;15.50;;;10.83;;
29362;SDS011;16349;53.672;10.014;2024-01-30T12:35:08;14.70;;;10.37;;
29362;SDS011;16349;53.672;10.014;2024-01-30T12:37:36;13.40;;;9.13;;
29362;SDS011;16349;53.672;10.014;2024-01-30T12:40:03;15.37;;;9.93;;
29362;SDS011;16349;53.672;10.014;2024-01-30T12:42:32;15.23;;;9.33;;
29362;SDS011;16349;53.672;10.014;2024-01-30T12:44:59;13.73;;;10.17;;
29362;SDS011;16349;53.672;10.014;2024-01-30T12:47:26;15.40;;;9.33;;
29362;SDS011;16349;53.672;10.014;2024-01-30T12:49:53;10.70;;;8.40;;
29362;SDS011;16349;53.672;10.014;2024-01-30T12:52:20;11.10;;;8.37;;
29362;SDS011;16349;53.672;10.014;2024-01-30T12:54:48;10.93;;;8.23;;
29362;SDS011;16349;53.672;10.014;2024-01-30T12:57:15;10.20;;;8.33;;
29362;SDS011;16349;53.672;10.014;2024-01-30T12:59:44;12.37;;;8.07;;
29362;SDS011;16349;53.672;10.014;2024-01-30T13:02:12;12.63;;;8.17;;
29362;SDS011;16349;53.672;10.014;2024-01-30T13:04:39;14.03;;;8.50;;
29362;SDS011;16349;53.672;10.014;2024-01-30T13:07:06;9.47;;;7.77;;
29362;SDS011;16349;53.672;10.014;2024-01-30T13:09:33;9.90;;;8.20;;
29362;SDS011;16349;53.672;10.014;2024-01-30T13:12:00;13.77;;;9.97;;
29362;SDS011;16349;53.672;10.014;2024-01-30T13:14:27;10.20;;;8.27;;
29362;SDS011;16349;53.672;10.014;2024-01-30T13:16:55;12.13;;;8.83;;
29362;SDS011;16349;53.672;10.014;2024-01-30T13:19:22;13.40;;;7.67;;
29362;SDS011;16349;53.672;10.014;2024-01-30T13:21:49;12.07;;;7.60;;
29362;SDS011;16349;53.672;10.014;2024-01-30T13:24:16;9.20;;;7.70;;
29362;SDS011;16349;53.672;10.014;2024-01-30T13:26:46;12.17;;;8.03;;
29362;SDS011;16349;53.672;10.014;2024-01-30T13:29:13;9.60;;;7.70;;
29362;SDS011;16349;53.672;10.014;2024-01-30T13:31:40;9.27;;;7.83;;
29362;SDS011;16349;53.672;10.014;2024-01-30T13:34:08;15.73;;;8.30;;
29362;SDS011;16349;53.672;10.014;2024-01-30T13:36:35;10.37;;;8.10;;
29362;SDS011;16349;53.672;10.014;2024-01-30T13:39:02;12.07;;;8.17;;
29362;SDS011;16349;53.672;10.014;2024-01-30T13:41:30;10.57;;;8.53;;
29362;SDS011;16349;53.672;10.014;2024-01-30T13:43:57;13.27;;;8.70;;
29362;SDS011;16349;53.672;10.014;2024-01-30T13:46:24;15.47;;;8.10;;
29362;SDS011;16349;53.672;10.014;2024-01-30T13:48:51;9.77;;;8.13;;
29362;SDS011;16349;53.672;10.014;2024-01-30T13:51:19;11.03;;;8.03;;
29362;SDS011;16349;53.672;10.014;2024-01-30T13:53:46;11.17;;;8.47;;
29362;SDS011;16349;53.672;10.014;2024-01-30T13:56:15;11.50;;;8.47;;
29362;SDS011;16349;53.672;10.014;2024-01-30T13:58:41;13.93;;;8.63;;
29362;SDS011;16349;53.672;10.014;2024-01-30T14:01:08;10.33;;;8.43;;
29362;SDS011;16349;53.672;10.014;2024-01-30T14:03:35;10.67;;;8.70;;
29362;SDS011;16349;53.672;10.014;2024-01-30T14:06:02;10.60;;;8.03;;
29362;SDS011;16349;53.672;10.014;2024-01-30T14:08:31;11.13;;;8.57;;
29362;SDS011;16349;53.672;10.014;2024-01-30T14:10:58;11.87;;;8.67;;
29362;SDS011;16349;53.672;10.014;2024-01-30T14:13:24;10.30;;;8.37;;
29362;SDS011;16349;53.672;10.014;2024-01-30T14:15:51;12.67;;;8.73;;
29362;SDS011;16349;53.672;10.014;2024-01-30T14:18:18;11.17;;;9.10;;
29362;SDS011;16349;53.672;10.014;2024-01-30T14:20:45;11.00;;;7.97;;
29362;SDS011;16349;53.672;10.014;2024-01-30T14:23:12;11.47;;;8.50;;
29362;SDS011;16349;53.672;10.014;2024-01-30T14:25:40;14.07;;;9.23;;
29362;SDS011;16349;53.672;10.014;2024-01-30T14:28:07;11.50;;;9.07;;
29362;SDS011;16349;53.672;10.014;2024-01-30T14:30:34;10.30;;;8.57;;